sensor_id;sensor_type;location;lat;lon;timestamp;P1;durP1;ratioP1;P2;durP2;ratioP2
74259;SDS011;62630;55.874;37.516;2023-02-15T00:00:23;2.28;;;0.43;;
74259;SDS011;62630;55.874;37.516;2023-02-15T00:02:48;2.28;;;0.60;;
74259;SDS011;62630;55.874;37.516;2023-02-15T00:05:14;2.95;;;0.60;;
74259;SDS011;62630;55.874;37.516;2023-02-15T00:07:39;3.13;;;0.70;;
74259;SDS011;62630;55.874;37.516;2023-02-15T00:10:05;2.70;;;0.70;;
74259;SDS011;62630;55.874;37.516;2023-02-15T00:12:32;1.90;;;0.82;;
74259;SDS011;62630;55.874;37.516;2023-02-15T00:14:57;2.80;;;0.60;;
74259;SDS011;62630;55.874;37.516;2023-02-15T00:17:23;2.15;;;0.50;;
74259;SDS011;62630;55.874;37.516;2023-02-15T00:19:49;2.95;;;1.27;;
74259;SDS011;62630;55.874;37.516;2023-02-15T00:22:14;2.22;;;1.17;;
74259;SDS011;62630;55.874;37.516;2023-02-15T00:24:40;7.22;;;0.80;;
74259;SDS011;62630;55.874;37.516;2023-02-15T00:27:05;3.72;;;0.65;;
74259;SDS011;62630;55.874;37.516;2023-02-15T00:29:31;3.20;;;0.50;;
74259;SDS011;62630;55.874;37.516;2023-02-15T00:31:56;1.75;;;0.60;;
74259;SDS011;62630;55.874;37.516;2023-02-15T00:34:23;2.25;;;1.02;;
74259;SDS011;62630;55.874;37.516;2023-02-15T00:36:50;2.47;;;0.68;;
74259;SDS011;62630;55.874;37.516;2023-02-15T00:39:16;2.42;;;0.55;;
74259;SDS011;62630;55.874;37.516;2023-02-15T00:41:44;4.35;;;0.75;;
74259;SDS011;62630;55.874;37.516;2023-02-15T00:44:14;1.60;;;0.70;;
74259;SDS011;62630;55.874;37.516;2023-02-15T00:46:41;1.52;;;0.68;;
74259;SDS011;62630;55.874;37.516;2023-02-15T00:49:07;3.90;;;0.93;;
74259;SDS011;62630;55.874;37.516;2023-02-15T00:51:32;3.28;;;0.55;;
74259;SDS011;62630;55.874;37.516;2023-02-15T00:53:58;1.25;;;0.47;;
74259;SDS011;62630;55.874;37.516;2023-02-15T00:56:25;3.05;;;0.70;;
74259;SDS011;62630;55.874;37.516;2023-02-15T00:58:53;2.95;;;0.50;;
74259;SDS011;62630;55.874;37.516;2023-02-15T01:01:19;1.40;;;0.50;;
74259;SDS011;62630;55.874;37.516;2023-02-15T01:03:46;1.35;;;0.60;;
74259;SDS011;62630;55.874;37.516;2023-02-15T01:06:11;2.13;;;0.90;;
74259;SDS011;62630;55.874;37.516;2023-02-15T01:08:38;1.73;;;0.50;;
74259;SDS011;62630;55.874;37.516;2023-02-15T01:11:04;7.55;;;0.82;;
74259;SDS011;62630;55.874;37.516;2023-02-15T01:13:40;5.03;;;0.85;;
74259;SDS011;62630;55.874;37.516;2023-02-15T01:16:06;1.58;;;0.70;;
74259;SDS011;62630;55.874;37.516;2023-02-15T01:18:32;6.80;;;0.90;;
74259;SDS011;62630;55.874;37.516;2023-02-15T01:20:59;2.58;;;0.50;;
74259;SDS011;62630;55.874;37.516;2023-02-15T01:23:25;4.47;;;0.70;;
74259;SDS011;62630;55.874;37.516;2023-02-15T01:25:50;2.75;;;0.73;;
74259;SDS011;62630;55.874;37.516;2023-02-15T01:28:16;2.03;;;0.65;;
74259;SDS011;62630;55.874;37.516;2023-02-15T01:30:41;2.88;;;0.73;;
74259;SDS011;62630;55.874;37.516;2023-02-15T01:33:10;2.42;;;0.73;;
74259;SDS011;62630;55.874;37.516;2023-02-15T01:35:42;7.13;;;0.77;;
74259;SDS011;62630;55.874;37.516;2023-02-15T01:38:09;5.18;;;1.00;;
74259;SDS011;62630;55.874;37.516;2023-02-15T01:40:37;1.77;;;0.60;;
74259;SDS011;62630;55.874;37.516;2023-02-15T01:43:08;4.00;;;0.63;;
74259;SDS011;62630;55.874;37.516;2023-02-15T01:45:36;2.50;;;0.60;;
74259;SDS011;62630;55.874;37.516;2023-02-15T01:48:02;1.23;;;0.30;;
74259;SDS011;62630;55.874;37.516;2023-02-15T01:50:30;2.33;;;0.47;;
74259;SDS011;62630;55.874;37.516;2023-02-15T01:53:11;2.20;;;0.98;;
74259;SDS011;62630;55.874;37.516;2023-02-15T01:56:16;2.35;;;0.70;;
74259;SDS011;62630;55.874;37.516;2023-02-15T01:58:35;2.95;;;0.60;;
74259;SDS011;62630;55.874;37.516;2023-02-15T02:01:02;4.93;;;0.55;;
74259;SDS011;62630;55.874;37.516;2023-02-15T02:04:15;2.63;;;0.60;;
74259;SDS011;62630;55.874;37.516;2023-02-15T02:06:36;2.50;;;0.50;;
74259;SDS011;62630;55.874;37.516;2023-02-15T02:09:03;2.80;;;0.60;;
74259;SDS011;62630;55.874;37.516;2023-02-15T02:11:32;1.20;;;0.57;;
74259;SDS011;62630;55.874;37.516;2023-02-15T02:14:00;2.35;;;0.70;;
74259;SDS011;62630;55.874;37.516;2023-02-15T02:33:45;4.57;;;1.08;;
74259;SDS011;62630;55.874;37.516;2023-02-15T02:44:49;3.13;;;0.82;;
74259;SDS011;62630;55.874;37.516;2023-02-15T02:49:51;3.05;;;0.80;;
74259;SDS011;62630;55.874;37.516;2023-02-15T02:55:00;6.45;;;1.70;;
74259;SDS011;62630;55.874;37.516;2023-02-15T02:57:28;5.35;;;1.00;;
74259;SDS011;62630;55.874;37.516;2023-02-15T02:59:56;2.88;;;0.80;;
74259;SDS011;62630;55.874;37.516;2023-02-15T03:02:29;2.78;;;0.95;;
74259;SDS011;62630;55.874;37.516;2023-02-15T03:05:02;2.70;;;0.63;;
74259;SDS011;62630;55.874;37.516;2023-02-15T03:07:31;2.50;;;0.75;;
74259;SDS011;62630;55.874;37.516;2023-02-15T03:10:01;4.97;;;1.33;;
74259;SDS011;62630;55.874;37.516;2023-02-15T03:12:34;3.88;;;1.05;;
74259;SDS011;62630;55.874;37.516;2023-02-15T03:17:31;3.08;;;1.20;;
74259;SDS011;62630;55.874;37.516;2023-02-15T03:20:00;4.30;;;0.90;;
74259;SDS011;62630;55.874;37.516;2023-02-15T03:22:31;2.75;;;1.00;;
74259;SDS011;62630;55.874;37.516;2023-02-15T03:25:14;5.10;;;1.20;;
74259;SDS011;62630;55.874;37.516;2023-02-15T03:27:45;5.85;;;1.23;;
74259;SDS011;62630;55.874;37.516;2023-02-15T03:30:14;2.63;;;0.80;;
74259;SDS011;62630;55.874;37.516;2023-02-15T03:32:44;3.03;;;0.93;;
74259;SDS011;62630;55.874;37.516;2023-02-15T03:35:14;7.78;;;1.30;;
74259;SDS011;62630;55.874;37.516;2023-02-15T03:37:49;5.15;;;1.15;;
74259;SDS011;62630;55.874;37.516;2023-02-15T03:43:19;1.08;;;0.50;;
74259;SDS011;62630;55.874;37.516;2023-02-15T03:45:57;2.60;;;0.80;;
74259;SDS011;62630;55.874;37.516;2023-02-15T03:48:35;3.08;;;0.90;;
74259;SDS011;62630;55.874;37.516;2023-02-15T03:51:05;1.13;;;0.63;;
74259;SDS011;62630;55.874;37.516;2023-02-15T03:53:56;1.35;;;0.50;;
74259;SDS011;62630;55.874;37.516;2023-02-15T03:57:00;1.60;;;0.82;;
74259;SDS011;62630;55.874;37.516;2023-02-15T03:59:45;2.05;;;0.55;;
74259;SDS011;62630;55.874;37.516;2023-02-15T04:02:31;5.00;;;0.85;;
74259;SDS011;62630;55.874;37.516;2023-02-15T04:05:04;1.85;;;0.70;;
74259;SDS011;62630;55.874;37.516;2023-02-15T04:07:30;1.60;;;0.73;;
74259;SDS011;62630;55.874;37.516;2023-02-15T04:09:55;2.22;;;0.80;;
74259;SDS011;62630;55.874;37.516;2023-02-15T04:12:40;0.98;;;0.47;;
74259;SDS011;62630;55.874;37.516;2023-02-15T04:15:05;1.55;;;0.60;;
74259;SDS011;62630;55.874;37.516;2023-02-15T04:17:49;2.70;;;0.52;;
74259;SDS011;62630;55.874;37.516;2023-02-15T04:20:15;2.28;;;0.52;;
74259;SDS011;62630;55.874;37.516;2023-02-15T04:22:59;0.95;;;0.63;;
74259;SDS011;62630;55.874;37.516;2023-02-15T04:25:43;1.08;;;0.63;;
74259;SDS011;62630;55.874;37.516;2023-02-15T04:28:12;3.38;;;0.80;;
74259;SDS011;62630;55.874;37.516;2023-02-15T04:30:37;3.53;;;1.00;;
74259;SDS011;62630;55.874;37.516;2023-02-15T04:33:03;2.60;;;0.82;;
74259;SDS011;62630;55.874;37.516;2023-02-15T04:35:35;3.28;;;0.88;;
74259;SDS011;62630;55.874;37.516;2023-02-15T04:38:00;4.05;;;1.55;;
74259;SDS011;62630;55.874;37.516;2023-02-15T04:40:29;2.28;;;0.95;;
74259;SDS011;62630;55.874;37.516;2023-02-15T04:42:57;3.17;;;1.13;;
74259;SDS011;62630;55.874;37.516;2023-02-15T04:45:23;4.30;;;0.98;;
74259;SDS011;62630;55.874;37.516;2023-02-15T04:47:51;3.88;;;1.00;;
74259;SDS011;62630;55.874;37.516;2023-02-15T04:50:17;3.08;;;0.85;;
74259;SDS011;62630;55.874;37.516;2023-02-15T04:52:42;2.90;;;1.02;;
74259;SDS011;62630;55.874;37.516;2023-02-15T04:55:11;1.88;;;0.90;;
74259;SDS011;62630;55.874;37.516;2023-02-15T04:57:37;3.70;;;0.60;;
74259;SDS011;62630;55.874;37.516;2023-02-15T05:00:03;7.30;;;0.88;;
74259;SDS011;62630;55.874;37.516;2023-02-15T05:02:28;2.78;;;0.70;;
74259;SDS011;62630;55.874;37.516;2023-02-15T05:04:54;1.30;;;0.60;;
74259;SDS011;62630;55.874;37.516;2023-02-15T05:07:21;1.50;;;0.80;;
74259;SDS011;62630;55.874;37.516;2023-02-15T05:09:47;5.63;;;1.00;;
74259;SDS011;62630;55.874;37.516;2023-02-15T05:12:13;3.72;;;0.90;;
74259;SDS011;62630;55.874;37.516;2023-02-15T05:14:38;1.77;;;0.75;;
74259;SDS011;62630;55.874;37.516;2023-02-15T05:17:04;5.85;;;1.17;;
74259;SDS011;62630;55.874;37.516;2023-02-15T05:19:30;3.15;;;0.75;;
74259;SDS011;62630;55.874;37.516;2023-02-15T05:21:55;2.85;;;0.90;;
74259;SDS011;62630;55.874;37.516;2023-02-15T05:24:21;2.72;;;0.80;;
74259;SDS011;62630;55.874;37.516;2023-02-15T05:27:05;2.17;;;0.88;;
74259;SDS011;62630;55.874;37.516;2023-02-15T05:29:56;3.38;;;1.40;;
74259;SDS011;62630;55.874;37.516;2023-02-15T05:32:22;3.55;;;1.02;;
74259;SDS011;62630;55.874;37.516;2023-02-15T05:34:48;3.80;;;1.33;;
74259;SDS011;62630;55.874;37.516;2023-02-15T05:37:13;4.45;;;1.48;;
74259;SDS011;62630;55.874;37.516;2023-02-15T05:42:06;3.03;;;1.17;;
74259;SDS011;62630;55.874;37.516;2023-02-15T05:44:35;5.10;;;1.42;;
74259;SDS011;62630;55.874;37.516;2023-02-15T05:47:01;2.47;;;1.10;;
74259;SDS011;62630;55.874;37.516;2023-02-15T05:49:28;7.38;;;1.40;;
74259;SDS011;62630;55.874;37.516;2023-02-15T05:51:53;4.53;;;1.45;;
74259;SDS011;62630;55.874;37.516;2023-02-15T05:54:19;2.45;;;1.30;;
74259;SDS011;62630;55.874;37.516;2023-02-15T05:56:44;4.45;;;1.50;;
74259;SDS011;62630;55.874;37.516;2023-02-15T05:59:10;3.40;;;1.90;;
74259;SDS011;62630;55.874;37.516;2023-02-15T06:01:36;6.78;;;1.55;;
74259;SDS011;62630;55.874;37.516;2023-02-15T06:04:02;5.28;;;1.40;;
74259;SDS011;62630;55.874;37.516;2023-02-15T06:06:28;4.90;;;1.30;;
74259;SDS011;62630;55.874;37.516;2023-02-15T06:08:54;3.30;;;1.63;;
74259;SDS011;62630;55.874;37.516;2023-02-15T06:11:20;4.57;;;1.67;;
74259;SDS011;62630;55.874;37.516;2023-02-15T06:13:45;7.88;;;1.65;;
74259;SDS011;62630;55.874;37.516;2023-02-15T06:16:12;7.80;;;1.92;;
74259;SDS011;62630;55.874;37.516;2023-02-15T06:18:41;5.68;;;1.52;;
74259;SDS011;62630;55.874;37.516;2023-02-15T06:21:06;4.20;;;1.55;;
74259;SDS011;62630;55.874;37.516;2023-02-15T06:23:33;5.25;;;1.83;;
74259;SDS011;62630;55.874;37.516;2023-02-15T06:25:59;5.25;;;1.50;;
74259;SDS011;62630;55.874;37.516;2023-02-15T06:28:24;3.47;;;1.55;;
74259;SDS011;62630;55.874;37.516;2023-02-15T06:30:50;3.80;;;1.30;;
74259;SDS011;62630;55.874;37.516;2023-02-15T06:33:18;2.35;;;1.30;;
74259;SDS011;62630;55.874;37.516;2023-02-15T06:35:44;4.90;;;1.60;;
74259;SDS011;62630;55.874;37.516;2023-02-15T06:38:10;3.45;;;1.60;;
74259;SDS011;62630;55.874;37.516;2023-02-15T06:40:36;4.22;;;1.85;;
74259;SDS011;62630;55.874;37.516;2023-02-15T06:43:02;10.55;;;1.92;;
74259;SDS011;62630;55.874;37.516;2023-02-15T06:45:28;3.83;;;1.30;;
74259;SDS011;62630;55.874;37.516;2023-02-15T06:47:53;2.20;;;1.23;;
74259;SDS011;62630;55.874;37.516;2023-02-15T06:50:19;3.45;;;1.10;;
74259;SDS011;62630;55.874;37.516;2023-02-15T06:52:48;3.35;;;1.20;;
74259;SDS011;62630;55.874;37.516;2023-02-15T06:55:16;5.95;;;1.20;;
74259;SDS011;62630;55.874;37.516;2023-02-15T06:57:42;2.85;;;0.90;;
74259;SDS011;62630;55.874;37.516;2023-02-15T07:00:08;4.30;;;0.85;;
74259;SDS011;62630;55.874;37.516;2023-02-15T07:02:34;3.17;;;1.20;;
74259;SDS011;62630;55.874;37.516;2023-02-15T07:05:01;5.70;;;1.80;;
74259;SDS011;62630;55.874;37.516;2023-02-15T07:07:26;4.40;;;1.45;;
74259;SDS011;62630;55.874;37.516;2023-02-15T07:09:52;11.25;;;1.20;;
74259;SDS011;62630;55.874;37.516;2023-02-15T07:12:17;3.45;;;1.85;;
74259;SDS011;62630;55.874;37.516;2023-02-15T07:15:01;5.95;;;1.52;;
74259;SDS011;62630;55.874;37.516;2023-02-15T07:17:33;3.65;;;1.27;;
74259;SDS011;62630;55.874;37.516;2023-02-15T07:20:06;3.28;;;1.77;;
74259;SDS011;62630;55.874;37.516;2023-02-15T07:25:06;2.88;;;1.48;;
74259;SDS011;62630;55.874;37.516;2023-02-15T07:27:33;3.30;;;1.50;;
74259;SDS011;62630;55.874;37.516;2023-02-15T07:29:59;3.20;;;1.77;;
74259;SDS011;62630;55.874;37.516;2023-02-15T07:32:31;5.07;;;1.60;;
74259;SDS011;62630;55.874;37.516;2023-02-15T07:34:57;3.90;;;1.75;;
74259;SDS011;62630;55.874;37.516;2023-02-15T07:37:24;8.73;;;1.92;;
74259;SDS011;62630;55.874;37.516;2023-02-15T07:39:49;3.33;;;1.45;;
74259;SDS011;62630;55.874;37.516;2023-02-15T07:42:15;5.03;;;1.70;;
74259;SDS011;62630;55.874;37.516;2023-02-15T07:44:41;3.83;;;1.42;;
74259;SDS011;62630;55.874;37.516;2023-02-15T07:47:06;8.57;;;2.28;;
74259;SDS011;62630;55.874;37.516;2023-02-15T07:49:32;3.97;;;2.10;;
74259;SDS011;62630;55.874;37.516;2023-02-15T07:52:00;4.55;;;2.53;;
74259;SDS011;62630;55.874;37.516;2023-02-15T07:54:29;4.47;;;2.00;;
74259;SDS011;62630;55.874;37.516;2023-02-15T07:56:57;4.38;;;1.20;;
74259;SDS011;62630;55.874;37.516;2023-02-15T07:59:23;3.85;;;1.85;;
74259;SDS011;62630;55.874;37.516;2023-02-15T08:01:49;4.45;;;1.35;;
74259;SDS011;62630;55.874;37.516;2023-02-15T08:04:15;5.28;;;1.75;;
74259;SDS011;62630;55.874;37.516;2023-02-15T08:06:43;4.88;;;1.33;;
74259;SDS011;62630;55.874;37.516;2023-02-15T08:09:08;9.05;;;1.38;;
74259;SDS011;62630;55.874;37.516;2023-02-15T08:11:38;7.43;;;1.60;;
74259;SDS011;62630;55.874;37.516;2023-02-15T08:14:06;3.17;;;1.15;;
74259;SDS011;62630;55.874;37.516;2023-02-15T08:16:43;5.07;;;1.75;;
74259;SDS011;62630;55.874;37.516;2023-02-15T08:21:55;2.50;;;1.38;;
74259;SDS011;62630;55.874;37.516;2023-02-15T08:24:25;1.63;;;1.08;;
74259;SDS011;62630;55.874;37.516;2023-02-15T08:30:10;4.70;;;1.77;;
74259;SDS011;62630;55.874;37.516;2023-02-15T08:32:39;6.18;;;1.90;;
74259;SDS011;62630;55.874;37.516;2023-02-15T08:35:06;6.00;;;1.40;;
74259;SDS011;62630;55.874;37.516;2023-02-15T08:37:31;3.20;;;1.40;;
74259;SDS011;62630;55.874;37.516;2023-02-15T08:39:59;3.50;;;1.23;;
74259;SDS011;62630;55.874;37.516;2023-02-15T08:42:25;2.53;;;1.77;;
74259;SDS011;62630;55.874;37.516;2023-02-15T08:44:50;6.28;;;1.77;;
74259;SDS011;62630;55.874;37.516;2023-02-15T08:47:16;5.82;;;1.42;;
74259;SDS011;62630;55.874;37.516;2023-02-15T08:49:42;4.68;;;1.65;;
74259;SDS011;62630;55.874;37.516;2023-02-15T08:52:07;2.55;;;1.15;;
74259;SDS011;62630;55.874;37.516;2023-02-15T08:54:37;5.20;;;1.30;;
74259;SDS011;62630;55.874;37.516;2023-02-15T08:57:06;2.58;;;1.45;;
74259;SDS011;62630;55.874;37.516;2023-02-15T08:59:32;3.10;;;1.60;;
74259;SDS011;62630;55.874;37.516;2023-02-15T09:01:57;5.78;;;1.30;;
74259;SDS011;62630;55.874;37.516;2023-02-15T09:04:24;6.82;;;1.30;;
74259;SDS011;62630;55.874;37.516;2023-02-15T09:06:50;5.38;;;1.38;;
74259;SDS011;62630;55.874;37.516;2023-02-15T09:09:17;2.33;;;1.40;;
74259;SDS011;62630;55.874;37.516;2023-02-15T09:11:46;1.45;;;1.08;;
74259;SDS011;62630;55.874;37.516;2023-02-15T09:14:14;4.38;;;1.60;;
74259;SDS011;62630;55.874;37.516;2023-02-15T09:16:44;1.50;;;1.00;;
74259;SDS011;62630;55.874;37.516;2023-02-15T09:19:18;4.35;;;1.42;;
74259;SDS011;62630;55.874;37.516;2023-02-15T09:21:44;4.05;;;1.55;;
74259;SDS011;62630;55.874;37.516;2023-02-15T09:24:11;8.90;;;1.58;;
74259;SDS011;62630;55.874;37.516;2023-02-15T09:26:41;3.78;;;1.38;;
74259;SDS011;62630;55.874;37.516;2023-02-15T09:29:09;2.15;;;1.27;;
74259;SDS011;62630;55.874;37.516;2023-02-15T09:31:39;1.40;;;0.95;;
74259;SDS011;62630;55.874;37.516;2023-02-15T09:34:09;1.83;;;1.40;;
74259;SDS011;62630;55.874;37.516;2023-02-15T09:36:36;1.92;;;1.02;;
74259;SDS011;62630;55.874;37.516;2023-02-15T09:39:11;2.05;;;1.00;;
74259;SDS011;62630;55.874;37.516;2023-02-15T09:54:03;3.50;;;1.02;;
74259;SDS011;62630;55.874;37.516;2023-02-15T09:56:55;3.25;;;1.00;;
74259;SDS011;62630;55.874;37.516;2023-02-15T09:59:54;2.67;;;0.88;;
74259;SDS011;62630;55.874;37.516;2023-02-15T10:03:23;3.35;;;1.17;;
74259;SDS011;62630;55.874;37.516;2023-02-15T10:11:17;3.28;;;1.23;;
74259;SDS011;62630;55.874;37.516;2023-02-15T10:16:55;1.15;;;0.50;;
74259;SDS011;62630;55.874;37.516;2023-02-15T10:25:18;2.28;;;1.00;;
74259;SDS011;62630;55.874;37.516;2023-02-15T10:27:54;2.25;;;0.95;;
74259;SDS011;62630;55.874;37.516;2023-02-15T10:33:06;1.40;;;0.73;;
74259;SDS011;62630;55.874;37.516;2023-02-15T10:35:45;2.05;;;1.20;;
74259;SDS011;62630;55.874;37.516;2023-02-15T10:44:18;3.90;;;1.00;;
74259;SDS011;62630;55.874;37.516;2023-02-15T10:47:23;1.92;;;0.90;;
74259;SDS011;62630;55.874;37.516;2023-02-15T10:52:54;2.60;;;0.85;;
74259;SDS011;62630;55.874;37.516;2023-02-15T11:01:32;3.05;;;1.17;;
74259;SDS011;62630;55.874;37.516;2023-02-15T11:06:53;2.83;;;1.17;;
74259;SDS011;62630;55.874;37.516;2023-02-15T11:09:22;2.05;;;1.02;;
74259;SDS011;62630;55.874;37.516;2023-02-15T11:11:52;2.58;;;1.27;;
74259;SDS011;62630;55.874;37.516;2023-02-15T11:17:15;3.47;;;1.40;;
74259;SDS011;62630;55.874;37.516;2023-02-15T11:22:23;3.55;;;1.13;;
74259;SDS011;62630;55.874;37.516;2023-02-15T11:24:49;3.13;;;1.30;;
74259;SDS011;62630;55.874;37.516;2023-02-15T11:27:23;1.50;;;0.88;;
74259;SDS011;62630;55.874;37.516;2023-02-15T11:30:13;3.42;;;0.98;;
74259;SDS011;62630;55.874;37.516;2023-02-15T11:32:46;1.98;;;0.60;;
74259;SDS011;62630;55.874;37.516;2023-02-15T11:38:01;2.58;;;1.00;;
74259;SDS011;62630;55.874;37.516;2023-02-15T11:40:36;2.28;;;0.70;;
74259;SDS011;62630;55.874;37.516;2023-02-15T11:46:13;1.45;;;0.60;;
74259;SDS011;62630;55.874;37.516;2023-02-15T11:51:45;1.52;;;0.57;;
74259;SDS011;62630;55.874;37.516;2023-02-15T11:54:15;0.32;;;0.30;;
74259;SDS011;62630;55.874;37.516;2023-02-15T11:56:45;1.13;;;0.68;;
74259;SDS011;62630;55.874;37.516;2023-02-15T11:59:12;2.35;;;0.82;;
74259;SDS011;62630;55.874;37.516;2023-02-15T12:01:54;1.60;;;0.60;;
74259;SDS011;62630;55.874;37.516;2023-02-15T12:12:46;1.00;;;0.60;;
74259;SDS011;62630;55.874;37.516;2023-02-15T12:15:09;1.00;;;0.68;;
74259;SDS011;62630;55.874;37.516;2023-02-15T12:17:40;1.00;;;0.55;;
74259;SDS011;62630;55.874;37.516;2023-02-15T12:25:26;2.50;;;0.40;;
74259;SDS011;62630;55.874;37.516;2023-02-15T12:28:01;1.05;;;0.60;;
74259;SDS011;62630;55.874;37.516;2023-02-15T12:30:41;0.60;;;0.50;;
74259;SDS011;62630;55.874;37.516;2023-02-15T12:35:55;3.42;;;0.82;;
74259;SDS011;62630;55.874;37.516;2023-02-15T12:44:20;0.98;;;0.50;;
74259;SDS011;62630;55.874;37.516;2023-02-15T12:46:56;3.60;;;0.70;;
74259;SDS011;62630;55.874;37.516;2023-02-15T12:50:36;1.10;;;0.70;;
74259;SDS011;62630;55.874;37.516;2023-02-15T12:53:29;1.02;;;0.40;;
74259;SDS011;62630;55.874;37.516;2023-02-15T12:56:04;3.00;;;0.50;;
74259;SDS011;62630;55.874;37.516;2023-02-15T12:58:32;0.90;;;0.43;;
74259;SDS011;62630;55.874;37.516;2023-02-15T13:03:34;0.95;;;0.45;;
74259;SDS011;62630;55.874;37.516;2023-02-15T13:06:01;2.05;;;0.70;;
74259;SDS011;62630;55.874;37.516;2023-02-15T13:08:54;2.08;;;0.65;;
74259;SDS011;62630;55.874;37.516;2023-02-15T13:11:26;1.42;;;0.60;;
74259;SDS011;62630;55.874;37.516;2023-02-15T13:14:00;1.48;;;0.80;;
74259;SDS011;62630;55.874;37.516;2023-02-15T13:16:34;2.13;;;0.70;;
74259;SDS011;62630;55.874;37.516;2023-02-15T13:19:09;1.52;;;0.73;;
74259;SDS011;62630;55.874;37.516;2023-02-15T13:21:43;1.77;;;0.93;;
74259;SDS011;62630;55.874;37.516;2023-02-15T13:24:25;2.85;;;0.63;;
74259;SDS011;62630;55.874;37.516;2023-02-15T13:26:57;2.38;;;0.75;;
74259;SDS011;62630;55.874;37.516;2023-02-15T13:29:31;2.17;;;0.60;;
74259;SDS011;62630;55.874;37.516;2023-02-15T13:32:11;2.53;;;0.57;;
74259;SDS011;62630;55.874;37.516;2023-02-15T13:34:54;2.33;;;1.02;;
74259;SDS011;62630;55.874;37.516;2023-02-15T13:38:33;3.17;;;1.13;;
74259;SDS011;62630;55.874;37.516;2023-02-15T13:54:56;1.00;;;0.40;;
74259;SDS011;62630;55.874;37.516;2023-02-15T14:00:14;3.67;;;0.60;;
74259;SDS011;62630;55.874;37.516;2023-02-15T14:11:17;0.82;;;0.70;;
74259;SDS011;62630;55.874;37.516;2023-02-15T14:14:21;2.15;;;0.90;;
74259;SDS011;62630;55.874;37.516;2023-02-15T14:19:46;0.82;;;0.30;;
74259;SDS011;62630;55.874;37.516;2023-02-15T14:25:25;0.70;;;0.47;;
74259;SDS011;62630;55.874;37.516;2023-02-15T14:28:03;3.25;;;0.40;;
74259;SDS011;62630;55.874;37.516;2023-02-15T14:30:39;1.23;;;0.60;;
74259;SDS011;62630;55.874;37.516;2023-02-15T14:35:56;1.45;;;0.50;;
74259;SDS011;62630;55.874;37.516;2023-02-15T14:41:34;1.08;;;0.82;;
74259;SDS011;62630;55.874;37.516;2023-02-15T14:44:15;1.98;;;0.60;;
74259;SDS011;62630;55.874;37.516;2023-02-15T14:49:38;2.55;;;0.60;;
74259;SDS011;62630;55.874;37.516;2023-02-15T14:52:11;1.02;;;0.77;;
74259;SDS011;62630;55.874;37.516;2023-02-15T14:59:40;1.73;;;0.60;;
74259;SDS011;62630;55.874;37.516;2023-02-15T15:04:34;0.63;;;0.32;;
74259;SDS011;62630;55.874;37.516;2023-02-15T15:07:10;1.25;;;0.60;;
74259;SDS011;62630;55.874;37.516;2023-02-15T15:09:40;0.80;;;0.50;;
74259;SDS011;62630;55.874;37.516;2023-02-15T15:12:54;0.80;;;0.60;;
74259;SDS011;62630;55.874;37.516;2023-02-15T15:15:02;1.60;;;0.60;;
74259;SDS011;62630;55.874;37.516;2023-02-15T15:20:14;0.52;;;0.45;;
74259;SDS011;62630;55.874;37.516;2023-02-15T15:24:02;0.80;;;0.40;;
74259;SDS011;62630;55.874;37.516;2023-02-15T15:26:21;0.95;;;0.50;;
74259;SDS011;62630;55.874;37.516;2023-02-15T15:39:21;1.75;;;0.70;;
74259;SDS011;62630;55.874;37.516;2023-02-15T15:44:54;1.40;;;0.68;;
74259;SDS011;62630;55.874;37.516;2023-02-15T15:50:13;1.38;;;0.65;;
74259;SDS011;62630;55.874;37.516;2023-02-15T15:52:42;1.40;;;0.65;;
74259;SDS011;62630;55.874;37.516;2023-02-15T15:55:17;3.45;;;0.50;;
74259;SDS011;62630;55.874;37.516;2023-02-15T15:57:46;0.93;;;0.52;;
74259;SDS011;62630;55.874;37.516;2023-02-15T16:00:39;0.68;;;0.47;;
74259;SDS011;62630;55.874;37.516;2023-02-15T16:03:15;3.20;;;0.57;;
74259;SDS011;62630;55.874;37.516;2023-02-15T16:05:48;3.45;;;0.55;;
74259;SDS011;62630;55.874;37.516;2023-02-15T16:08:26;0.88;;;0.40;;
74259;SDS011;62630;55.874;37.516;2023-02-15T16:10:54;0.60;;;0.60;;
74259;SDS011;62630;55.874;37.516;2023-02-15T16:13:20;0.88;;;0.50;;
74259;SDS011;62630;55.874;37.516;2023-02-15T16:15:47;1.42;;;0.60;;
74259;SDS011;62630;55.874;37.516;2023-02-15T16:18:17;2.00;;;0.63;;
74259;SDS011;62630;55.874;37.516;2023-02-15T16:20:58;1.50;;;0.55;;
74259;SDS011;62630;55.874;37.516;2023-02-15T16:26:32;4.45;;;0.88;;
74259;SDS011;62630;55.874;37.516;2023-02-15T16:29:12;0.98;;;0.63;;
74259;SDS011;62630;55.874;37.516;2023-02-15T16:31:39;4.35;;;0.88;;
74259;SDS011;62630;55.874;37.516;2023-02-15T16:34:07;1.92;;;1.15;;
74259;SDS011;62630;55.874;37.516;2023-02-15T16:36:42;1.92;;;0.68;;
74259;SDS011;62630;55.874;37.516;2023-02-15T16:39:23;1.30;;;0.55;;
74259;SDS011;62630;55.874;37.516;2023-02-15T16:41:48;0.82;;;0.40;;
74259;SDS011;62630;55.874;37.516;2023-02-15T16:44:29;2.15;;;0.70;;
74259;SDS011;62630;55.874;37.516;2023-02-15T16:46:57;1.17;;;0.65;;
74259;SDS011;62630;55.874;37.516;2023-02-15T16:49:30;0.82;;;0.40;;
74259;SDS011;62630;55.874;37.516;2023-02-15T16:51:59;0.93;;;0.65;;
74259;SDS011;62630;55.874;37.516;2023-02-15T16:54:27;2.47;;;0.90;;
74259;SDS011;62630;55.874;37.516;2023-02-15T16:56:55;1.48;;;0.55;;
74259;SDS011;62630;55.874;37.516;2023-02-15T17:02:19;2.63;;;0.70;;
74259;SDS011;62630;55.874;37.516;2023-02-15T17:05:02;1.17;;;0.43;;
74259;SDS011;62630;55.874;37.516;2023-02-15T17:07:27;1.08;;;0.45;;
74259;SDS011;62630;55.874;37.516;2023-02-15T17:09:56;1.08;;;0.38;;
74259;SDS011;62630;55.874;37.516;2023-02-15T17:15:27;2.95;;;1.40;;
74259;SDS011;62630;55.874;37.516;2023-02-15T17:17:55;3.35;;;1.42;;
74259;SDS011;62630;55.874;37.516;2023-02-15T17:20:23;1.55;;;0.82;;
74259;SDS011;62630;55.874;37.516;2023-02-15T17:22:49;2.63;;;0.60;;
74259;SDS011;62630;55.874;37.516;2023-02-15T17:25:19;0.85;;;0.60;;
74259;SDS011;62630;55.874;37.516;2023-02-15T17:27:52;1.38;;;0.90;;
74259;SDS011;62630;55.874;37.516;2023-02-15T17:30:24;1.98;;;0.57;;
74259;SDS011;62630;55.874;37.516;2023-02-15T17:32:59;4.78;;;1.02;;
74259;SDS011;62630;55.874;37.516;2023-02-15T17:35:32;2.75;;;1.17;;
74259;SDS011;62630;55.874;37.516;2023-02-15T17:38:05;2.85;;;1.00;;
74259;SDS011;62630;55.874;37.516;2023-02-15T17:40:41;1.20;;;0.70;;
74259;SDS011;62630;55.874;37.516;2023-02-15T17:43:08;1.75;;;0.88;;
74259;SDS011;62630;55.874;37.516;2023-02-15T17:45:35;1.20;;;0.57;;
74259;SDS011;62630;55.874;37.516;2023-02-15T17:48:09;1.67;;;0.57;;
74259;SDS011;62630;55.874;37.516;2023-02-15T17:50:46;0.85;;;0.45;;
74259;SDS011;62630;55.874;37.516;2023-02-15T17:53:12;3.05;;;0.60;;
74259;SDS011;62630;55.874;37.516;2023-02-15T17:55:41;1.40;;;0.70;;
74259;SDS011;62630;55.874;37.516;2023-02-15T18:00:50;1.25;;;0.68;;
74259;SDS011;62630;55.874;37.516;2023-02-15T18:03:42;3.20;;;0.82;;
74259;SDS011;62630;55.874;37.516;2023-02-15T18:06:28;0.75;;;0.40;;
74259;SDS011;62630;55.874;37.516;2023-02-15T18:09:12;0.63;;;0.50;;
74259;SDS011;62630;55.874;37.516;2023-02-15T18:11:58;0.75;;;0.50;;
74259;SDS011;62630;55.874;37.516;2023-02-15T18:14:23;0.90;;;0.65;;
74259;SDS011;62630;55.874;37.516;2023-02-15T18:16:49;3.88;;;1.08;;
74259;SDS011;62630;55.874;37.516;2023-02-15T18:19:19;5.13;;;1.85;;
74259;SDS011;62630;55.874;37.516;2023-02-15T18:21:47;2.80;;;1.10;;
74259;SDS011;62630;55.874;37.516;2023-02-15T18:24:19;3.97;;;1.45;;
74259;SDS011;62630;55.874;37.516;2023-02-15T18:26:53;4.13;;;1.38;;
74259;SDS011;62630;55.874;37.516;2023-02-15T18:29:20;4.28;;;0.50;;